sensor_id;sensor_type;location;lat;lon;timestamp;P1;durP1;ratioP1;P2;durP2;ratioP2
37855;SDS011;23694;43.274;26.924;2022-12-16T00:00:11;81.27;;;50.67;;
37855;SDS011;23694;43.274;26.924;2022-12-16T00:02:39;88.20;;;51.77;;
37855;SDS011;23694;43.274;26.924;2022-12-16T00:05:05;108.07;;;61.50;;
37855;SDS011;23694;43.274;26.924;2022-12-16T00:07:31;81.90;;;46.50;;
37855;SDS011;23694;43.274;26.924;2022-12-16T00:09:57;73.17;;;40.87;;
37855;SDS011;23694;43.274;26.924;2022-12-16T00:12:23;74.87;;;44.90;;
37855;SDS011;23694;43.274;26.924;2022-12-16T00:14:50;76.27;;;44.30;;
37855;SDS011;23694;43.274;26.924;2022-12-16T00:17:16;85.80;;;51.00;;
37855;SDS011;23694;43.274;26.924;2022-12-16T00:19:42;78.87;;;47.13;;
37855;SDS011;23694;43.274;26.924;2022-12-16T00:22:08;113.37;;;62.73;;
37855;SDS011;23694;43.274;26.924;2022-12-16T00:24:34;99.40;;;57.00;;
37855;SDS011;23694;43.274;26.924;2022-12-16T00:27:00;95.47;;;53.90;;
37855;SDS011;23694;43.274;26.924;2022-12-16T00:29:27;80.07;;;45.83;;
37855;SDS011;23694;43.274;26.924;2022-12-16T00:31:53;70.93;;;41.93;;
37855;SDS011;23694;43.274;26.924;2022-12-16T00:34:19;68.70;;;41.60;;
37855;SDS011;23694;43.274;26.924;2022-12-16T00:36:45;69.97;;;41.13;;
37855;SDS011;23694;43.274;26.924;2022-12-16T00:39:11;69.00;;;40.00;;
37855;SDS011;23694;43.274;26.924;2022-12-16T00:41:37;71.53;;;41.73;;
37855;SDS011;23694;43.274;26.924;2022-12-16T00:44:03;71.37;;;42.43;;
37855;SDS011;23694;43.274;26.924;2022-12-16T00:46:29;68.67;;;41.47;;
37855;SDS011;23694;43.274;26.924;2022-12-16T00:48:55;69.70;;;42.20;;
37855;SDS011;23694;43.274;26.924;2022-12-16T00:51:22;69.50;;;39.73;;
37855;SDS011;23694;43.274;26.924;2022-12-16T00:53:48;62.63;;;39.53;;
37855;SDS011;23694;43.274;26.924;2022-12-16T00:56:14;66.23;;;40.80;;
37855;SDS011;23694;43.274;26.924;2022-12-16T00:58:40;68.83;;;42.43;;
37855;SDS011;23694;43.274;26.924;2022-12-16T01:01:07;73.40;;;43.87;;
37855;SDS011;23694;43.274;26.924;2022-12-16T01:03:33;63.47;;;40.47;;
37855;SDS011;23694;43.274;26.924;2022-12-16T01:05:59;68.50;;;41.40;;
37855;SDS011;23694;43.274;26.924;2022-12-16T01:08:26;63.23;;;41.10;;
37855;SDS011;23694;43.274;26.924;2022-12-16T01:10:53;63.43;;;39.57;;
37855;SDS011;23694;43.274;26.924;2022-12-16T01:13:22;66.40;;;41.73;;
37855;SDS011;23694;43.274;26.924;2022-12-16T01:15:49;66.87;;;40.77;;
37855;SDS011;23694;43.274;26.924;2022-12-16T01:18:16;65.20;;;40.77;;
37855;SDS011;23694;43.274;26.924;2022-12-16T01:20:42;64.27;;;39.30;;
37855;SDS011;23694;43.274;26.924;2022-12-16T01:23:08;64.23;;;38.60;;
37855;SDS011;23694;43.274;26.924;2022-12-16T01:25:34;66.73;;;41.27;;
37855;SDS011;23694;43.274;26.924;2022-12-16T01:28:00;56.13;;;36.87;;
37855;SDS011;23694;43.274;26.924;2022-12-16T01:30:27;64.97;;;40.40;;
37855;SDS011;23694;43.274;26.924;2022-12-16T01:32:53;63.83;;;38.77;;
37855;SDS011;23694;43.274;26.924;2022-12-16T01:35:19;57.47;;;36.90;;
37855;SDS011;23694;43.274;26.924;2022-12-16T01:37:45;63.30;;;37.70;;
37855;SDS011;23694;43.274;26.924;2022-12-16T01:40:22;56.87;;;35.03;;
37855;SDS011;23694;43.274;26.924;2022-12-16T01:42:49;54.33;;;33.80;;
37855;SDS011;23694;43.274;26.924;2022-12-16T01:45:26;57.10;;;35.87;;
37855;SDS011;23694;43.274;26.924;2022-12-16T01:47:57;56.53;;;35.67;;
37855;SDS011;23694;43.274;26.924;2022-12-16T01:50:26;57.73;;;36.13;;
37855;SDS011;23694;43.274;26.924;2022-12-16T01:52:55;56.97;;;33.80;;
37855;SDS011;23694;43.274;26.924;2022-12-16T01:55:27;57.57;;;33.17;;
37855;SDS011;23694;43.274;26.924;2022-12-16T01:58:06;54.43;;;35.20;;
37855;SDS011;23694;43.274;26.924;2022-12-16T02:00:37;53.27;;;34.07;;
37855;SDS011;23694;43.274;26.924;2022-12-16T02:03:05;53.13;;;34.00;;
37855;SDS011;23694;43.274;26.924;2022-12-16T02:05:33;52.27;;;32.90;;
37855;SDS011;23694;43.274;26.924;2022-12-16T02:18:52;56.57;;;35.13;;
37855;SDS011;23694;43.274;26.924;2022-12-16T02:22:13;52.63;;;33.20;;
37855;SDS011;23694;43.274;26.924;2022-12-16T02:35:38;60.73;;;35.50;;
37855;SDS011;23694;43.274;26.924;2022-12-16T02:38:37;69.47;;;42.57;;
37855;SDS011;23694;43.274;26.924;2022-12-16T02:41:15;68.90;;;39.60;;
37855;SDS011;23694;43.274;26.924;2022-12-16T02:44:03;67.05;;;40.63;;
37855;SDS011;23694;43.274;26.924;2022-12-16T02:46:31;55.47;;;34.13;;
37855;SDS011;23694;43.274;26.924;2022-12-16T02:49:39;61.53;;;35.73;;
37855;SDS011;23694;43.274;26.924;2022-12-16T02:51:51;58.90;;;36.07;;
37855;SDS011;23694;43.274;26.924;2022-12-16T02:54:18;60.27;;;36.43;;
37855;SDS011;23694;43.274;26.924;2022-12-16T03:00:06;57.00;;;35.13;;
37855;SDS011;23694;43.274;26.924;2022-12-16T03:03:39;59.30;;;35.73;;
37855;SDS011;23694;43.274;26.924;2022-12-16T03:05:43;53.60;;;34.70;;
37855;SDS011;23694;43.274;26.924;2022-12-16T03:08:24;58.50;;;37.07;;
37855;SDS011;23694;43.274;26.924;2022-12-16T03:11:02;54.83;;;34.67;;
37855;SDS011;23694;43.274;26.924;2022-12-16T03:13:32;55.00;;;35.73;;
37855;SDS011;23694;43.274;26.924;2022-12-16T03:18:31;48.40;;;31.50;;
37855;SDS011;23694;43.274;26.924;2022-12-16T03:21:00;47.37;;;29.10;;
37855;SDS011;23694;43.274;26.924;2022-12-16T03:23:36;44.80;;;29.53;;
37855;SDS011;23694;43.274;26.924;2022-12-16T03:26:27;44.37;;;28.73;;
37855;SDS011;23694;43.274;26.924;2022-12-16T03:39:41;44.93;;;27.53;;
37855;SDS011;23694;43.274;26.924;2022-12-16T03:42:11;45.88;;;28.45;;
37855;SDS011;23694;43.274;26.924;2022-12-16T03:44:40;47.07;;;29.73;;
37855;SDS011;23694;43.274;26.924;2022-12-16T03:47:08;48.77;;;28.53;;
37855;SDS011;23694;43.274;26.924;2022-12-16T03:49:35;49.67;;;29.47;;
37855;SDS011;23694;43.274;26.924;2022-12-16T03:52:01;51.33;;;30.80;;
37855;SDS011;23694;43.274;26.924;2022-12-16T03:54:28;54.23;;;32.60;;
37855;SDS011;23694;43.274;26.924;2022-12-16T03:56:54;54.33;;;33.03;;
37855;SDS011;23694;43.274;26.924;2022-12-16T03:59:20;55.93;;;33.63;;
37855;SDS011;23694;43.274;26.924;2022-12-16T04:01:46;55.87;;;32.33;;
37855;SDS011;23694;43.274;26.924;2022-12-16T04:04:12;57.37;;;33.90;;
37855;SDS011;23694;43.274;26.924;2022-12-16T04:06:38;62.67;;;36.43;;
37855;SDS011;23694;43.274;26.924;2022-12-16T04:09:04;62.13;;;34.57;;
37855;SDS011;23694;43.274;26.924;2022-12-16T04:11:30;62.80;;;34.20;;
37855;SDS011;23694;43.274;26.924;2022-12-16T04:14:15;61.43;;;34.37;;
37855;SDS011;23694;43.274;26.924;2022-12-16T04:17:00;67.30;;;36.73;;
37855;SDS011;23694;43.274;26.924;2022-12-16T04:19:45;72.67;;;42.07;;
37855;SDS011;23694;43.274;26.924;2022-12-16T04:22:31;76.60;;;43.10;;
37855;SDS011;23694;43.274;26.924;2022-12-16T04:25:27;74.43;;;42.77;;
37855;SDS011;23694;43.274;26.924;2022-12-16T04:27:57;80.27;;;46.23;;
37855;SDS011;23694;43.274;26.924;2022-12-16T04:30:23;85.27;;;47.90;;
37855;SDS011;23694;43.274;26.924;2022-12-16T04:35:38;76.07;;;45.67;;
37855;SDS011;23694;43.274;26.924;2022-12-16T04:38:23;78.20;;;44.00;;
37855;SDS011;23694;43.274;26.924;2022-12-16T04:41:08;75.37;;;43.83;;
37855;SDS011;23694;43.274;26.924;2022-12-16T04:43:52;85.07;;;46.63;;
37855;SDS011;23694;43.274;26.924;2022-12-16T04:46:37;84.10;;;46.07;;
37855;SDS011;23694;43.274;26.924;2022-12-16T04:49:21;81.87;;;45.33;;
37855;SDS011;23694;43.274;26.924;2022-12-16T04:52:06;97.13;;;46.60;;
37855;SDS011;23694;43.274;26.924;2022-12-16T04:54:51;92.83;;;46.83;;
37855;SDS011;23694;43.274;26.924;2022-12-16T04:57:35;89.97;;;45.50;;
37855;SDS011;23694;43.274;26.924;2022-12-16T05:00:20;101.80;;;48.00;;
37855;SDS011;23694;43.274;26.924;2022-12-16T05:03:04;107.73;;;47.10;;
37855;SDS011;23694;43.274;26.924;2022-12-16T05:05:49;102.83;;;48.20;;
37855;SDS011;23694;43.274;26.924;2022-12-16T05:08:33;118.83;;;53.47;;
37855;SDS011;23694;43.274;26.924;2022-12-16T05:11:17;136.67;;;66.20;;
37855;SDS011;23694;43.274;26.924;2022-12-16T05:14:02;140.13;;;59.40;;
37855;SDS011;23694;43.274;26.924;2022-12-16T05:16:47;137.07;;;60.83;;
37855;SDS011;23694;43.274;26.924;2022-12-16T05:19:31;134.90;;;56.53;;
37855;SDS011;23694;43.274;26.924;2022-12-16T05:22:16;134.30;;;58.60;;
37855;SDS011;23694;43.274;26.924;2022-12-16T05:25:00;138.70;;;56.97;;
37855;SDS011;23694;43.274;26.924;2022-12-16T05:27:48;174.80;;;68.87;;
37855;SDS011;23694;43.274;26.924;2022-12-16T05:30:34;202.37;;;76.23;;
37855;SDS011;23694;43.274;26.924;2022-12-16T05:33:18;173.80;;;76.37;;
37855;SDS011;23694;43.274;26.924;2022-12-16T05:36:03;196.67;;;80.23;;
37855;SDS011;23694;43.274;26.924;2022-12-16T05:38:49;209.93;;;84.53;;
37855;SDS011;23694;43.274;26.924;2022-12-16T05:41:34;248.07;;;93.73;;
37855;SDS011;23694;43.274;26.924;2022-12-16T05:44:19;223.70;;;87.07;;
37855;SDS011;23694;43.274;26.924;2022-12-16T05:47:03;244.70;;;75.93;;
37855;SDS011;23694;43.274;26.924;2022-12-16T05:49:48;164.93;;;63.27;;
37855;SDS011;23694;43.274;26.924;2022-12-16T05:52:32;226.70;;;64.30;;
37855;SDS011;23694;43.274;26.924;2022-12-16T05:55:17;195.07;;;63.50;;
37855;SDS011;23694;43.274;26.924;2022-12-16T05:58:01;195.23;;;79.50;;
37855;SDS011;23694;43.274;26.924;2022-12-16T06:00:46;184.87;;;65.93;;
37855;SDS011;23694;43.274;26.924;2022-12-16T06:03:30;180.43;;;65.97;;
37855;SDS011;23694;43.274;26.924;2022-12-16T06:06:15;173.73;;;69.77;;
37855;SDS011;23694;43.274;26.924;2022-12-16T06:08:59;179.63;;;67.27;;
37855;SDS011;23694;43.274;26.924;2022-12-16T06:11:44;183.47;;;66.60;;
37855;SDS011;23694;43.274;26.924;2022-12-16T06:14:28;174.27;;;64.20;;
37855;SDS011;23694;43.274;26.924;2022-12-16T06:17:12;232.33;;;113.37;;
37855;SDS011;23694;43.274;26.924;2022-12-16T06:20:01;177.73;;;64.07;;
37855;SDS011;23694;43.274;26.924;2022-12-16T06:22:50;208.10;;;87.67;;
37855;SDS011;23694;43.274;26.924;2022-12-16T06:25:36;204.03;;;80.73;;
37855;SDS011;23694;43.274;26.924;2022-12-16T06:28:20;193.87;;;91.17;;
37855;SDS011;23694;43.274;26.924;2022-12-16T06:31:05;229.93;;;107.87;;
37855;SDS011;23694;43.274;26.924;2022-12-16T06:33:50;204.53;;;89.53;;
37855;SDS011;23694;43.274;26.924;2022-12-16T06:36:35;171.07;;;71.73;;
37855;SDS011;23694;43.274;26.924;2022-12-16T06:39:19;185.03;;;85.43;;
37855;SDS011;23694;43.274;26.924;2022-12-16T06:42:04;191.43;;;70.13;;
37855;SDS011;23694;43.274;26.924;2022-12-16T06:44:48;199.53;;;71.23;;
37855;SDS011;23694;43.274;26.924;2022-12-16T06:47:49;180.10;;;66.83;;
37855;SDS011;23694;43.274;26.924;2022-12-16T06:50:34;168.07;;;65.33;;
37855;SDS011;23694;43.274;26.924;2022-12-16T06:53:19;207.30;;;79.63;;
37855;SDS011;23694;43.274;26.924;2022-12-16T06:56:03;191.60;;;72.53;;
37855;SDS011;23694;43.274;26.924;2022-12-16T06:58:47;197.73;;;74.10;;
37855;SDS011;23694;43.274;26.924;2022-12-16T07:01:32;179.83;;;71.47;;
37855;SDS011;23694;43.274;26.924;2022-12-16T07:04:16;173.97;;;68.67;;
37855;SDS011;23694;43.274;26.924;2022-12-16T07:07:01;173.57;;;72.23;;
37855;SDS011;23694;43.274;26.924;2022-12-16T07:09:45;167.27;;;67.93;;
37855;SDS011;23694;43.274;26.924;2022-12-16T07:12:30;185.50;;;72.50;;
37855;SDS011;23694;43.274;26.924;2022-12-16T07:15:14;183.77;;;73.33;;
37855;SDS011;23694;43.274;26.924;2022-12-16T07:17:59;198.83;;;79.23;;
37855;SDS011;23694;43.274;26.924;2022-12-16T07:20:43;198.50;;;79.63;;
37855;SDS011;23694;43.274;26.924;2022-12-16T07:23:28;202.00;;;82.73;;
37855;SDS011;23694;43.274;26.924;2022-12-16T07:26:12;243.73;;;98.43;;
37855;SDS011;23694;43.274;26.924;2022-12-16T07:28:56;197.80;;;82.30;;
37855;SDS011;23694;43.274;26.924;2022-12-16T07:31:41;183.17;;;78.87;;
37855;SDS011;23694;43.274;26.924;2022-12-16T07:34:25;186.47;;;81.87;;
37855;SDS011;23694;43.274;26.924;2022-12-16T07:37:09;203.93;;;87.53;;
37855;SDS011;23694;43.274;26.924;2022-12-16T07:39:54;243.60;;;107.00;;
37855;SDS011;23694;43.274;26.924;2022-12-16T07:42:41;230.90;;;106.90;;
37855;SDS011;23694;43.274;26.924;2022-12-16T07:45:29;228.10;;;106.40;;
37855;SDS011;23694;43.274;26.924;2022-12-16T07:48:14;225.20;;;105.43;;
37855;SDS011;23694;43.274;26.924;2022-12-16T07:50:59;209.30;;;101.30;;
37855;SDS011;23694;43.274;26.924;2022-12-16T07:53:43;195.30;;;95.93;;
37855;SDS011;23694;43.274;26.924;2022-12-16T07:56:28;203.60;;;95.47;;
37855;SDS011;23694;43.274;26.924;2022-12-16T07:59:12;245.93;;;124.53;;
37855;SDS011;23694;43.274;26.924;2022-12-16T08:01:57;204.30;;;111.40;;
37855;SDS011;23694;43.274;26.924;2022-12-16T08:04:41;182.33;;;96.47;;
37855;SDS011;23694;43.274;26.924;2022-12-16T08:07:26;178.47;;;93.17;;
37855;SDS011;23694;43.274;26.924;2022-12-16T08:10:10;178.83;;;92.37;;
37855;SDS011;23694;43.274;26.924;2022-12-16T08:13:03;170.93;;;91.63;;
37855;SDS011;23694;43.274;26.924;2022-12-16T08:15:49;169.13;;;89.67;;
37855;SDS011;23694;43.274;26.924;2022-12-16T08:18:33;175.30;;;87.90;;
37855;SDS011;23694;43.274;26.924;2022-12-16T08:21:17;175.43;;;81.30;;
37855;SDS011;23694;43.274;26.924;2022-12-16T08:24:02;181.47;;;83.83;;
37855;SDS011;23694;43.274;26.924;2022-12-16T08:26:46;164.80;;;81.13;;
37855;SDS011;23694;43.274;26.924;2022-12-16T08:29:31;167.90;;;81.40;;
37855;SDS011;23694;43.274;26.924;2022-12-16T08:32:15;166.97;;;79.13;;
37855;SDS011;23694;43.274;26.924;2022-12-16T08:35:00;177.53;;;84.93;;
37855;SDS011;23694;43.274;26.924;2022-12-16T08:37:45;168.17;;;83.00;;
37855;SDS011;23694;43.274;26.924;2022-12-16T08:40:30;182.63;;;89.33;;
37855;SDS011;23694;43.274;26.924;2022-12-16T08:43:32;182.73;;;87.70;;
37855;SDS011;23694;43.274;26.924;2022-12-16T08:46:18;133.50;;;65.77;;
37855;SDS011;23694;43.274;26.924;2022-12-16T08:49:03;170.13;;;81.03;;
37855;SDS011;23694;43.274;26.924;2022-12-16T08:51:49;167.90;;;78.47;;
37855;SDS011;23694;43.274;26.924;2022-12-16T08:54:33;158.10;;;74.50;;
37855;SDS011;23694;43.274;26.924;2022-12-16T08:57:18;154.50;;;73.20;;
37855;SDS011;23694;43.274;26.924;2022-12-16T09:00:03;175.33;;;76.40;;
37855;SDS011;23694;43.274;26.924;2022-12-16T09:02:53;169.77;;;73.23;;
37855;SDS011;23694;43.274;26.924;2022-12-16T09:05:38;164.53;;;67.97;;
37855;SDS011;23694;43.274;26.924;2022-12-16T09:08:23;159.17;;;70.57;;
37855;SDS011;23694;43.274;26.924;2022-12-16T09:11:08;129.00;;;57.10;;
37855;SDS011;23694;43.274;26.924;2022-12-16T09:13:52;120.97;;;55.03;;
37855;SDS011;23694;43.274;26.924;2022-12-16T09:16:37;108.90;;;48.80;;
37855;SDS011;23694;43.274;26.924;2022-12-16T09:19:21;105.17;;;47.47;;
37855;SDS011;23694;43.274;26.924;2022-12-16T09:22:06;113.00;;;49.40;;
37855;SDS011;23694;43.274;26.924;2022-12-16T09:24:51;110.47;;;49.77;;
37855;SDS011;23694;43.274;26.924;2022-12-16T09:27:35;141.37;;;61.67;;
37855;SDS011;23694;43.274;26.924;2022-12-16T09:30:19;139.23;;;63.97;;
37855;SDS011;23694;43.274;26.924;2022-12-16T09:33:04;138.80;;;69.10;;
37855;SDS011;23694;43.274;26.924;2022-12-16T09:35:48;145.50;;;71.30;;
37855;SDS011;23694;43.274;26.924;2022-12-16T09:38:33;127.37;;;65.17;;
37855;SDS011;23694;43.274;26.924;2022-12-16T09:44:15;103.30;;;55.23;;
37855;SDS011;23694;43.274;26.924;2022-12-16T09:50:16;81.47;;;45.47;;
37855;SDS011;23694;43.274;26.924;2022-12-16T09:53:13;71.67;;;42.80;;
37855;SDS011;23694;43.274;26.924;2022-12-16T09:56:00;68.47;;;41.93;;
37855;SDS011;23694;43.274;26.924;2022-12-16T09:58:50;66.27;;;40.33;;
37855;SDS011;23694;43.274;26.924;2022-12-16T10:01:41;74.03;;;45.30;;
37855;SDS011;23694;43.274;26.924;2022-12-16T10:04:27;77.97;;;46.77;;
37855;SDS011;23694;43.274;26.924;2022-12-16T10:07:15;76.83;;;49.73;;
37855;SDS011;23694;43.274;26.924;2022-12-16T10:10:14;69.83;;;44.37;;
37855;SDS011;23694;43.274;26.924;2022-12-16T10:16:26;52.60;;;35.10;;
37855;SDS011;23694;43.274;26.924;2022-12-16T10:19:32;45.47;;;31.67;;
37855;SDS011;23694;43.274;26.924;2022-12-16T10:25:22;57.40;;;36.67;;
37855;SDS011;23694;43.274;26.924;2022-12-16T10:28:21;64.37;;;44.47;;
37855;SDS011;23694;43.274;26.924;2022-12-16T10:31:21;46.33;;;30.73;;
37855;SDS011;23694;43.274;26.924;2022-12-16T10:34:10;64.53;;;43.80;;
37855;SDS011;23694;43.274;26.924;2022-12-16T10:36:58;46.67;;;34.58;;
37855;SDS011;23694;43.274;26.924;2022-12-16T10:39:44;41.17;;;29.63;;
37855;SDS011;23694;43.274;26.924;2022-12-16T10:42:58;44.97;;;30.30;;
37855;SDS011;23694;43.274;26.924;2022-12-16T10:45:47;41.92;;;31.05;;
37855;SDS011;23694;43.274;26.924;2022-12-16T10:48:39;44.43;;;32.23;;
37855;SDS011;23694;43.274;26.924;2022-12-16T10:51:26;44.50;;;31.20;;
37855;SDS011;23694;43.274;26.924;2022-12-16T11:00:16;36.97;;;26.33;;
37855;SDS011;23694;43.274;26.924;2022-12-16T11:03:19;39.55;;;27.40;;
37855;SDS011;23694;43.274;26.924;2022-12-16T11:06:06;37.83;;;25.47;;
37855;SDS011;23694;43.274;26.924;2022-12-16T11:08:51;35.53;;;25.73;;
37855;SDS011;23694;43.274;26.924;2022-12-16T11:11:35;37.15;;;26.42;;
37855;SDS011;23694;43.274;26.924;2022-12-16T11:17:19;37.53;;;25.27;;
37855;SDS011;23694;43.274;26.924;2022-12-16T11:23:27;31.58;;;24.92;;
37855;SDS011;23694;43.274;26.924;2022-12-16T11:32:06;29.50;;;21.98;;
37855;SDS011;23694;43.274;26.924;2022-12-16T11:35:10;24.83;;;18.88;;
37855;SDS011;23694;43.274;26.924;2022-12-16T11:37:58;24.95;;;19.05;;
37855;SDS011;23694;43.274;26.924;2022-12-16T11:40:45;26.45;;;19.70;;
37855;SDS011;23694;43.274;26.924;2022-12-16T11:43:33;23.38;;;19.00;;
37855;SDS011;23694;43.274;26.924;2022-12-16T11:46:24;29.02;;;20.88;;
37855;SDS011;23694;43.274;26.924;2022-12-16T11:52:44;30.98;;;21.15;;
37855;SDS011;23694;43.274;26.924;2022-12-16T11:55:35;29.17;;;21.17;;
37855;SDS011;23694;43.274;26.924;2022-12-16T12:01:34;29.55;;;21.27;;
37855;SDS011;23694;43.274;26.924;2022-12-16T12:04:29;31.73;;;20.08;;
37855;SDS011;23694;43.274;26.924;2022-12-16T12:10:14;29.45;;;19.15;;
37855;SDS011;23694;43.274;26.924;2022-12-16T12:19:49;33.00;;;23.45;;
37855;SDS011;23694;43.274;26.924;2022-12-16T12:22:39;25.50;;;17.38;;
37855;SDS011;23694;43.274;26.924;2022-12-16T12:31:09;18.43;;;11.80;;
37855;SDS011;23694;43.274;26.924;2022-12-16T12:37:02;13.93;;;9.77;;
37855;SDS011;23694;43.274;26.924;2022-12-16T12:42:58;18.63;;;10.47;;
37855;SDS011;23694;43.274;26.924;2022-12-16T12:51:43;15.00;;;9.60;;
37855;SDS011;23694;43.274;26.924;2022-12-16T12:54:55;16.47;;;9.47;;
37855;SDS011;23694;43.274;26.924;2022-12-16T12:57:47;16.53;;;12.23;;
37855;SDS011;23694;43.274;26.924;2022-12-16T13:00:38;17.97;;;13.17;;
37855;SDS011;23694;43.274;26.924;2022-12-16T13:06:39;19.67;;;12.17;;
37855;SDS011;23694;43.274;26.924;2022-12-16T13:20:46;31.27;;;18.90;;
37855;SDS011;23694;43.274;26.924;2022-12-16T13:23:43;28.60;;;15.87;;
37855;SDS011;23694;43.274;26.924;2022-12-16T13:26:30;70.30;;;46.13;;
37855;SDS011;23694;43.274;26.924;2022-12-16T13:35:02;32.53;;;18.30;;
37855;SDS011;23694;43.274;26.924;2022-12-16T13:37:53;42.47;;;25.73;;
37855;SDS011;23694;43.274;26.924;2022-12-16T13:40:48;34.67;;;21.73;;
37855;SDS011;23694;43.274;26.924;2022-12-16T13:46:39;34.40;;;19.43;;
37855;SDS011;23694;43.274;26.924;2022-12-16T13:55:53;23.03;;;12.67;;
37855;SDS011;23694;43.274;26.924;2022-12-16T13:58:40;21.87;;;14.53;;
37855;SDS011;23694;43.274;26.924;2022-12-16T14:04:26;21.60;;;13.67;;
37855;SDS011;23694;43.274;26.924;2022-12-16T14:07:14;19.03;;;12.40;;
37855;SDS011;23694;43.274;26.924;2022-12-16T14:10:00;23.33;;;14.17;;
37855;SDS011;23694;43.274;26.924;2022-12-16T14:21:39;51.53;;;32.10;;
37855;SDS011;23694;43.274;26.924;2022-12-16T14:24:29;56.17;;;36.93;;
37855;SDS011;23694;43.274;26.924;2022-12-16T14:27:15;55.30;;;33.87;;
37855;SDS011;23694;43.274;26.924;2022-12-16T14:30:10;54.20;;;38.17;;
37855;SDS011;23694;43.274;26.924;2022-12-16T14:33:13;38.17;;;22.50;;
37855;SDS011;23694;43.274;26.924;2022-12-16T14:36:16;58.57;;;36.87;;
37855;SDS011;23694;43.274;26.924;2022-12-16T14:39:08;77.50;;;49.50;;
37855;SDS011;23694;43.274;26.924;2022-12-16T14:41:57;93.17;;;60.53;;
37855;SDS011;23694;43.274;26.924;2022-12-16T14:44:45;91.77;;;61.67;;
37855;SDS011;23694;43.274;26.924;2022-12-16T14:47:31;95.07;;;66.87;;
37855;SDS011;23694;43.274;26.924;2022-12-16T14:53:05;105.40;;;75.90;;
37855;SDS011;23694;43.274;26.924;2022-12-16T14:59:05;119.23;;;87.80;;
37855;SDS011;23694;43.274;26.924;2022-12-16T15:02:10;140.33;;;100.07;;
37855;SDS011;23694;43.274;26.924;2022-12-16T15:05:01;149.47;;;109.03;;
37855;SDS011;23694;43.274;26.924;2022-12-16T15:07:46;118.70;;;80.27;;
37855;SDS011;23694;43.274;26.924;2022-12-16T15:10:31;131.93;;;94.03;;
37855;SDS011;23694;43.274;26.924;2022-12-16T15:13:17;132.20;;;98.10;;
37855;SDS011;23694;43.274;26.924;2022-12-16T15:16:02;126.03;;;94.73;;
37855;SDS011;23694;43.274;26.924;2022-12-16T15:18:50;127.97;;;93.90;;
37855;SDS011;23694;43.274;26.924;2022-12-16T15:21:42;108.87;;;84.70;;
37855;SDS011;23694;43.274;26.924;2022-12-16T15:24:41;110.73;;;78.07;;
37855;SDS011;23694;43.274;26.924;2022-12-16T15:27:32;112.80;;;85.03;;
37855;SDS011;23694;43.274;26.924;2022-12-16T15:33:25;119.77;;;83.57;;
37855;SDS011;23694;43.274;26.924;2022-12-16T15:36:30;109.33;;;77.37;;
37855;SDS011;23694;43.274;26.924;2022-12-16T15:39:21;109.70;;;78.70;;
37855;SDS011;23694;43.274;26.924;2022-12-16T15:42:21;123.07;;;87.20;;
37855;SDS011;23694;43.274;26.924;2022-12-16T15:45:19;117.90;;;87.33;;
37855;SDS011;23694;43.274;26.924;2022-12-16T15:54:14;176.40;;;139.60;;
37855;SDS011;23694;43.274;26.924;2022-12-16T15:57:00;190.80;;;151.63;;
37855;SDS011;23694;43.274;26.924;2022-12-16T15:59:53;174.60;;;136.77;;
37855;SDS011;23694;43.274;26.924;2022-12-16T16:02:45;164.23;;;131.87;;
37855;SDS011;23694;43.274;26.924;2022-12-16T16:05:31;158.93;;;120.13;;
37855;SDS011;23694;43.274;26.924;2022-12-16T16:08:19;136.50;;;108.47;;
37855;SDS011;23694;43.274;26.924;2022-12-16T16:11:04;136.83;;;102.43;;
37855;SDS011;23694;43.274;26.924;2022-12-16T16:13:48;147.90;;;114.43;;
37855;SDS011;23694;43.274;26.924;2022-12-16T16:16:32;140.07;;;106.57;;
37855;SDS011;23694;43.274;26.924;2022-12-16T16:19:22;138.67;;;102.20;;
37855;SDS011;23694;43.274;26.924;2022-12-16T16:22:12;118.07;;;88.30;;
37855;SDS011;23694;43.274;26.924;2022-12-16T16:24:58;116.90;;;83.57;;
37855;SDS011;23694;43.274;26.924;2022-12-16T16:27:42;115.37;;;87.80;;
37855;SDS011;23694;43.274;26.924;2022-12-16T16:30:26;116.07;;;88.27;;
37855;SDS011;23694;43.274;26.924;2022-12-16T16:33:11;132.47;;;94.73;;
37855;SDS011;23694;43.274;26.924;2022-12-16T16:35:55;129.63;;;98.23;;
37855;SDS011;23694;43.274;26.924;2022-12-16T16:38:40;137.03;;;103.00;;
37855;SDS011;23694;43.274;26.924;2022-12-16T16:41:24;132.90;;;100.60;;
37855;SDS011;23694;43.274;26.924;2022-12-16T16:44:09;148.17;;;108.53;;
37855;SDS011;23694;43.274;26.924;2022-12-16T16:46:53;164.23;;;119.90;;
37855;SDS011;23694;43.274;26.924;2022-12-16T16:49:40;165.43;;;125.87;;
37855;SDS011;23694;43.274;26.924;2022-12-16T16:52:28;151.47;;;112.97;;
37855;SDS011;23694;43.274;26.924;2022-12-16T16:55:17;143.77;;;110.67;;
37855;SDS011;23694;43.274;26.924;2022-12-16T16:58:05;147.87;;;111.60;;
37855;SDS011;23694;43.274;26.924;2022-12-16T17:00:55;142.27;;;108.97;;
37855;SDS011;23694;43.274;26.924;2022-12-16T17:03:39;164.63;;;116.87;;
37855;SDS011;23694;43.274;26.924;2022-12-16T17:06:24;237.30;;;158.90;;
37855;SDS011;23694;43.274;26.924;2022-12-16T17:09:08;182.43;;;126.17;;
37855;SDS011;23694;43.274;26.924;2022-12-16T17:11:53;185.67;;;128.73;;
37855;SDS011;23694;43.274;26.924;2022-12-16T17:14:37;148.17;;;107.47;;
37855;SDS011;23694;43.274;26.924;2022-12-16T17:17:22;149.63;;;108.10;;
37855;SDS011;23694;43.274;26.924;2022-12-16T17:20:07;114.23;;;89.80;;
37855;SDS011;23694;43.274;26.924;2022-12-16T17:22:57;123.43;;;91.47;;
37855;SDS011;23694;43.274;26.924;2022-12-16T17:25:41;113.57;;;82.53;;
37855;SDS011;23694;43.274;26.924;2022-12-16T17:28:25;101.50;;;75.70;;
37855;SDS011;23694;43.274;26.924;2022-12-16T17:31:10;113.60;;;79.00;;
37855;SDS011;23694;43.274;26.924;2022-12-16T17:33:54;114.63;;;83.23;;
37855;SDS011;23694;43.274;26.924;2022-12-16T17:36:39;148.13;;;105.73;;
37855;SDS011;23694;43.274;26.924;2022-12-16T17:39:23;150.97;;;106.23;;
37855;SDS011;23694;43.274;26.924;2022-12-16T17:42:08;175.53;;;119.33;;
37855;SDS011;23694;43.274;26.924;2022-12-16T17:44:52;177.07;;;125.87;;
37855;SDS011;23694;43.274;26.924;2022-12-16T17:47:37;167.70;;;123.13;;
37855;SDS011;23694;43.274;26.924;2022-12-16T17:50:21;152.10;;;105.50;;
37855;SDS011;23694;43.274;26.924;2022-12-16T17:53:05;149.83;;;102.77;;
37855;SDS011;23694;43.274;26.924;2022-12-16T17:55:50;142.77;;;100.60;;
37855;SDS011;23694;43.274;26.924;2022-12-16T17:58:35;114.23;;;86.00;;
37855;SDS011;23694;43.274;26.924;2022-12-16T18:01:21;123.43;;;91.87;;
37855;SDS011;23694;43.274;26.924;2022-12-16T18:04:06;116.37;;;85.03;;
37855;SDS011;23694;43.274;26.924;2022-12-16T18:06:51;112.37;;;83.40;;
37855;SDS011;23694;43.274;26.924;2022-12-16T18:09:36;115.13;;;81.87;;
37855;SDS011;23694;43.274;26.924;2022-12-16T18:12:20;102.57;;;73.30;;